sensor_id;sensor_type;location;lat;lon;timestamp;P1;durP1;ratioP1;P2;durP2;ratioP2
55218;SDS011;65463;43.864;20.136;2023-02-01T00:00:52;27.65;;;13.38;;
55218;SDS011;65463;43.864;20.136;2023-02-01T00:03:18;29.70;;;13.85;;
55218;SDS011;65463;43.864;20.136;2023-02-01T00:05:44;27.92;;;13.15;;
55218;SDS011;65463;43.864;20.136;2023-02-01T00:08:11;27.50;;;13.57;;
55218;SDS011;65463;43.864;20.136;2023-02-01T00:10:37;30.77;;;14.98;;
55218;SDS011;65463;43.864;20.136;2023-02-01T00:13:02;30.25;;;14.88;;
55218;SDS011;65463;43.864;20.136;2023-02-01T00:15:28;26.33;;;13.85;;
55218;SDS011;65463;43.864;20.136;2023-02-01T00:17:55;25.75;;;13.80;;
55218;SDS011;65463;43.864;20.136;2023-02-01T00:20:21;25.42;;;12.38;;
55218;SDS011;65463;43.864;20.136;2023-02-01T00:22:47;24.42;;;12.43;;
55218;SDS011;65463;43.864;20.136;2023-02-01T00:25:12;25.60;;;12.20;;
55218;SDS011;65463;43.864;20.136;2023-02-01T00:27:38;23.90;;;10.85;;
55218;SDS011;65463;43.864;20.136;2023-02-01T00:30:04;24.25;;;12.02;;
55218;SDS011;65463;43.864;20.136;2023-02-01T00:32:30;24.75;;;11.25;;
55218;SDS011;65463;43.864;20.136;2023-02-01T00:34:57;22.98;;;11.23;;
55218;SDS011;65463;43.864;20.136;2023-02-01T00:37:23;21.05;;;10.90;;
55218;SDS011;65463;43.864;20.136;2023-02-01T00:39:48;24.20;;;10.60;;
55218;SDS011;65463;43.864;20.136;2023-02-01T00:42:15;29.58;;;11.23;;
55218;SDS011;65463;43.864;20.136;2023-02-01T00:44:41;21.98;;;12.35;;
55218;SDS011;65463;43.864;20.136;2023-02-01T00:47:07;21.75;;;10.20;;
55218;SDS011;65463;43.864;20.136;2023-02-01T00:49:32;25.48;;;10.70;;
55218;SDS011;65463;43.864;20.136;2023-02-01T00:51:58;24.90;;;11.25;;
55218;SDS011;65463;43.864;20.136;2023-02-01T00:54:24;25.98;;;11.70;;
55218;SDS011;65463;43.864;20.136;2023-02-01T00:56:50;22.48;;;11.02;;
55218;SDS011;65463;43.864;20.136;2023-02-01T00:59:16;21.85;;;11.45;;
55218;SDS011;65463;43.864;20.136;2023-02-01T01:01:42;33.00;;;13.05;;
55218;SDS011;65463;43.864;20.136;2023-02-01T01:04:09;27.77;;;12.18;;
55218;SDS011;65463;43.864;20.136;2023-02-01T01:06:35;30.23;;;14.60;;
55218;SDS011;65463;43.864;20.136;2023-02-01T01:09:03;43.45;;;18.55;;
55218;SDS011;65463;43.864;20.136;2023-02-01T01:11:31;30.55;;;13.68;;
55218;SDS011;65463;43.864;20.136;2023-02-01T01:13:57;31.13;;;13.82;;
55218;SDS011;65463;43.864;20.136;2023-02-01T01:16:25;27.77;;;13.55;;
55218;SDS011;65463;43.864;20.136;2023-02-01T01:18:52;29.52;;;13.05;;
55218;SDS011;65463;43.864;20.136;2023-02-01T01:21:18;31.73;;;14.32;;
55218;SDS011;65463;43.864;20.136;2023-02-01T01:23:45;32.22;;;14.95;;
55218;SDS011;65463;43.864;20.136;2023-02-01T01:26:19;28.48;;;13.23;;
55218;SDS011;65463;43.864;20.136;2023-02-01T01:28:46;26.67;;;12.20;;
55218;SDS011;65463;43.864;20.136;2023-02-01T01:31:12;27.65;;;12.48;;
55218;SDS011;65463;43.864;20.136;2023-02-01T01:33:39;24.73;;;13.13;;
55218;SDS011;65463;43.864;20.136;2023-02-01T01:36:06;23.40;;;12.25;;
55218;SDS011;65463;43.864;20.136;2023-02-01T01:38:32;25.58;;;12.38;;
55218;SDS011;65463;43.864;20.136;2023-02-01T01:40:58;26.55;;;11.50;;
55218;SDS011;65463;43.864;20.136;2023-02-01T01:43:44;27.50;;;11.77;;
55218;SDS011;65463;43.864;20.136;2023-02-01T01:46:15;24.30;;;11.10;;
55218;SDS011;65463;43.864;20.136;2023-02-01T01:48:41;24.85;;;11.25;;
55218;SDS011;65463;43.864;20.136;2023-02-01T01:51:08;30.35;;;13.40;;
55218;SDS011;65463;43.864;20.136;2023-02-01T01:53:38;31.13;;;12.40;;
55218;SDS011;65463;43.864;20.136;2023-02-01T01:56:04;28.83;;;13.10;;
55218;SDS011;65463;43.864;20.136;2023-02-01T01:58:31;26.67;;;12.35;;
55218;SDS011;65463;43.864;20.136;2023-02-01T02:00:59;34.40;;;12.65;;
55218;SDS011;65463;43.864;20.136;2023-02-01T02:03:27;26.60;;;11.60;;
55218;SDS011;65463;43.864;20.136;2023-02-01T02:06:01;26.67;;;12.43;;
55218;SDS011;65463;43.864;20.136;2023-02-01T02:08:28;27.67;;;13.30;;
55218;SDS011;65463;43.864;20.136;2023-02-01T02:10:55;29.73;;;13.57;;
55218;SDS011;65463;43.864;20.136;2023-02-01T02:13:24;28.48;;;12.27;;
55218;SDS011;65463;43.864;20.136;2023-02-01T02:26:11;32.58;;;16.10;;
55218;SDS011;65463;43.864;20.136;2023-02-01T02:36:38;38.75;;;16.90;;
55218;SDS011;65463;43.864;20.136;2023-02-01T02:47:18;40.83;;;18.70;;
55218;SDS011;65463;43.864;20.136;2023-02-01T02:50:02;37.65;;;17.20;;
55218;SDS011;65463;43.864;20.136;2023-02-01T02:52:51;37.95;;;17.35;;
55218;SDS011;65463;43.864;20.136;2023-02-01T02:55:38;35.70;;;17.17;;
55218;SDS011;65463;43.864;20.136;2023-02-01T02:58:05;34.03;;;16.20;;
55218;SDS011;65463;43.864;20.136;2023-02-01T03:00:51;32.90;;;16.17;;
55218;SDS011;65463;43.864;20.136;2023-02-01T03:03:37;40.45;;;16.83;;
55218;SDS011;65463;43.864;20.136;2023-02-01T03:06:23;30.17;;;14.63;;
55218;SDS011;65463;43.864;20.136;2023-02-01T03:08:50;38.08;;;16.63;;
55218;SDS011;65463;43.864;20.136;2023-02-01T03:11:19;37.10;;;16.98;;
55218;SDS011;65463;43.864;20.136;2023-02-01T03:13:50;39.67;;;16.75;;
55218;SDS011;65463;43.864;20.136;2023-02-01T03:16:22;40.63;;;16.38;;
55218;SDS011;65463;43.864;20.136;2023-02-01T03:21:32;39.03;;;17.77;;
55218;SDS011;65463;43.864;20.136;2023-02-01T03:24:02;34.97;;;17.63;;
55218;SDS011;65463;43.864;20.136;2023-02-01T03:26:30;36.97;;;19.23;;
55218;SDS011;65463;43.864;20.136;2023-02-01T03:29:02;40.40;;;19.13;;
55218;SDS011;65463;43.864;20.136;2023-02-01T03:31:31;36.58;;;17.35;;
55218;SDS011;65463;43.864;20.136;2023-02-01T03:33:57;37.33;;;17.83;;
55218;SDS011;65463;43.864;20.136;2023-02-01T03:43:59;39.85;;;18.10;;
55218;SDS011;65463;43.864;20.136;2023-02-01T03:46:29;55.85;;;23.60;;
55218;SDS011;65463;43.864;20.136;2023-02-01T03:48:59;79.70;;;30.17;;
55218;SDS011;65463;43.864;20.136;2023-02-01T03:51:26;68.80;;;28.95;;
55218;SDS011;65463;43.864;20.136;2023-02-01T03:53:52;65.43;;;26.00;;
55218;SDS011;65463;43.864;20.136;2023-02-01T03:56:19;55.63;;;21.05;;
55218;SDS011;65463;43.864;20.136;2023-02-01T03:58:47;63.05;;;21.25;;
55218;SDS011;65463;43.864;20.136;2023-02-01T04:01:23;53.50;;;21.70;;
55218;SDS011;65463;43.864;20.136;2023-02-01T04:03:50;52.55;;;21.15;;
55218;SDS011;65463;43.864;20.136;2023-02-01T04:06:16;61.35;;;21.52;;
55218;SDS011;65463;43.864;20.136;2023-02-01T04:08:42;82.22;;;26.17;;
55218;SDS011;65463;43.864;20.136;2023-02-01T04:11:09;67.60;;;26.00;;
55218;SDS011;65463;43.864;20.136;2023-02-01T04:13:35;64.40;;;24.58;;
55218;SDS011;65463;43.864;20.136;2023-02-01T04:16:01;55.63;;;24.75;;
55218;SDS011;65463;43.864;20.136;2023-02-01T04:18:27;54.03;;;23.50;;
55218;SDS011;65463;43.864;20.136;2023-02-01T04:20:53;79.30;;;29.27;;
55218;SDS011;65463;43.864;20.136;2023-02-01T04:23:19;75.10;;;27.00;;
55218;SDS011;65463;43.864;20.136;2023-02-01T04:25:45;71.38;;;27.92;;
55218;SDS011;65463;43.864;20.136;2023-02-01T04:28:12;76.93;;;29.05;;
55218;SDS011;65463;43.864;20.136;2023-02-01T04:30:38;77.68;;;29.70;;
55218;SDS011;65463;43.864;20.136;2023-02-01T04:33:04;58.28;;;23.63;;
55218;SDS011;65463;43.864;20.136;2023-02-01T04:35:30;58.17;;;25.45;;
55218;SDS011;65463;43.864;20.136;2023-02-01T04:37:57;55.75;;;26.45;;
55218;SDS011;65463;43.864;20.136;2023-02-01T04:40:23;56.33;;;24.50;;
55218;SDS011;65463;43.864;20.136;2023-02-01T04:42:49;54.50;;;24.35;;
55218;SDS011;65463;43.864;20.136;2023-02-01T04:45:15;55.38;;;24.27;;
55218;SDS011;65463;43.864;20.136;2023-02-01T04:47:41;51.22;;;23.98;;
55218;SDS011;65463;43.864;20.136;2023-02-01T04:50:07;60.83;;;23.23;;
55218;SDS011;65463;43.864;20.136;2023-02-01T04:52:35;49.25;;;22.27;;
55218;SDS011;65463;43.864;20.136;2023-02-01T04:55:02;53.03;;;23.20;;
55218;SDS011;65463;43.864;20.136;2023-02-01T04:57:28;55.15;;;23.60;;
55218;SDS011;65463;43.864;20.136;2023-02-01T04:59:54;55.72;;;23.10;;
55218;SDS011;65463;43.864;20.136;2023-02-01T05:02:21;45.42;;;20.00;;
55218;SDS011;65463;43.864;20.136;2023-02-01T05:04:47;58.58;;;23.52;;
55218;SDS011;65463;43.864;20.136;2023-02-01T05:07:13;45.35;;;21.73;;
55218;SDS011;65463;43.864;20.136;2023-02-01T05:09:39;42.25;;;20.30;;
55218;SDS011;65463;43.864;20.136;2023-02-01T05:12:07;43.47;;;20.42;;
55218;SDS011;65463;43.864;20.136;2023-02-01T05:14:52;45.00;;;16.95;;
55218;SDS011;65463;43.864;20.136;2023-02-01T05:17:18;33.55;;;15.38;;
55218;SDS011;65463;43.864;20.136;2023-02-01T05:19:44;42.45;;;15.73;;
55218;SDS011;65463;43.864;20.136;2023-02-01T05:22:11;33.22;;;16.08;;
55218;SDS011;65463;43.864;20.136;2023-02-01T05:24:40;39.38;;;16.52;;
55218;SDS011;65463;43.864;20.136;2023-02-01T05:27:06;43.67;;;15.98;;
55218;SDS011;65463;43.864;20.136;2023-02-01T05:29:32;50.03;;;17.48;;
55218;SDS011;65463;43.864;20.136;2023-02-01T05:31:58;47.40;;;17.38;;
55218;SDS011;65463;43.864;20.136;2023-02-01T05:34:24;48.15;;;19.10;;
55218;SDS011;65463;43.864;20.136;2023-02-01T05:36:51;52.60;;;18.70;;
55218;SDS011;65463;43.864;20.136;2023-02-01T05:39:17;54.60;;;20.70;;
55218;SDS011;65463;43.864;20.136;2023-02-01T05:41:44;46.53;;;19.85;;
55218;SDS011;65463;43.864;20.136;2023-02-01T05:44:10;45.05;;;22.48;;
55218;SDS011;65463;43.864;20.136;2023-02-01T05:46:36;53.58;;;21.92;;
55218;SDS011;65463;43.864;20.136;2023-02-01T05:49:03;58.10;;;22.30;;
55218;SDS011;65463;43.864;20.136;2023-02-01T05:51:30;51.72;;;23.42;;
55218;SDS011;65463;43.864;20.136;2023-02-01T05:53:56;58.25;;;26.30;;
55218;SDS011;65463;43.864;20.136;2023-02-01T05:56:22;53.80;;;24.52;;
55218;SDS011;65463;43.864;20.136;2023-02-01T05:58:49;54.03;;;23.38;;
55218;SDS011;65463;43.864;20.136;2023-02-01T06:01:15;51.72;;;23.80;;
55218;SDS011;65463;43.864;20.136;2023-02-01T06:03:42;53.70;;;24.05;;
55218;SDS011;65463;43.864;20.136;2023-02-01T06:06:08;50.53;;;24.02;;
55218;SDS011;65463;43.864;20.136;2023-02-01T06:08:34;54.38;;;24.02;;
55218;SDS011;65463;43.864;20.136;2023-02-01T06:11:01;51.88;;;23.88;;
55218;SDS011;65463;43.864;20.136;2023-02-01T06:13:28;47.03;;;22.92;;
55218;SDS011;65463;43.864;20.136;2023-02-01T06:15:55;59.38;;;24.40;;
55218;SDS011;65463;43.864;20.136;2023-02-01T06:18:22;52.35;;;23.55;;
55218;SDS011;65463;43.864;20.136;2023-02-01T06:20:55;51.40;;;22.50;;
55218;SDS011;65463;43.864;20.136;2023-02-01T06:23:22;51.65;;;21.67;;
55218;SDS011;65463;43.864;20.136;2023-02-01T06:25:52;54.20;;;23.45;;
55218;SDS011;65463;43.864;20.136;2023-02-01T06:28:19;53.75;;;21.13;;
55218;SDS011;65463;43.864;20.136;2023-02-01T06:30:46;54.90;;;22.80;;
55218;SDS011;65463;43.864;20.136;2023-02-01T06:33:15;68.03;;;25.05;;
55218;SDS011;65463;43.864;20.136;2023-02-01T06:35:42;67.60;;;23.70;;
55218;SDS011;65463;43.864;20.136;2023-02-01T06:38:12;60.72;;;25.83;;
55218;SDS011;65463;43.864;20.136;2023-02-01T06:40:38;53.53;;;22.25;;
55218;SDS011;65463;43.864;20.136;2023-02-01T06:43:06;56.67;;;25.23;;
55218;SDS011;65463;43.864;20.136;2023-02-01T06:45:32;53.88;;;25.25;;
55218;SDS011;65463;43.864;20.136;2023-02-01T06:47:58;48.22;;;22.65;;
55218;SDS011;65463;43.864;20.136;2023-02-01T06:50:25;48.13;;;21.88;;
55218;SDS011;65463;43.864;20.136;2023-02-01T06:52:52;77.32;;;34.83;;
55218;SDS011;65463;43.864;20.136;2023-02-01T06:55:18;42.40;;;19.90;;
55218;SDS011;65463;43.864;20.136;2023-02-01T06:57:44;72.47;;;20.60;;
55218;SDS011;65463;43.864;20.136;2023-02-01T07:00:11;75.55;;;21.52;;
55218;SDS011;65463;43.864;20.136;2023-02-01T07:02:37;59.25;;;19.63;;
55218;SDS011;65463;43.864;20.136;2023-02-01T07:05:04;67.05;;;21.52;;
55218;SDS011;65463;43.864;20.136;2023-02-01T07:07:30;78.78;;;23.92;;
55218;SDS011;65463;43.864;20.136;2023-02-01T07:09:56;91.50;;;28.20;;
55218;SDS011;65463;43.864;20.136;2023-02-01T07:12:22;94.53;;;23.35;;
55218;SDS011;65463;43.864;20.136;2023-02-01T07:14:49;108.00;;;21.33;;
55218;SDS011;65463;43.864;20.136;2023-02-01T07:17:15;140.23;;;21.95;;
55218;SDS011;65463;43.864;20.136;2023-02-01T07:19:41;90.32;;;23.33;;
55218;SDS011;65463;43.864;20.136;2023-02-01T07:22:07;88.05;;;21.60;;
55218;SDS011;65463;43.864;20.136;2023-02-01T07:24:33;128.73;;;22.00;;
55218;SDS011;65463;43.864;20.136;2023-02-01T07:26:59;70.28;;;19.67;;
55218;SDS011;65463;43.864;20.136;2023-02-01T07:29:25;52.42;;;17.20;;
55218;SDS011;65463;43.864;20.136;2023-02-01T07:31:51;54.58;;;18.15;;
55218;SDS011;65463;43.864;20.136;2023-02-01T07:34:18;37.80;;;16.35;;
55218;SDS011;65463;43.864;20.136;2023-02-01T07:36:44;41.95;;;16.52;;
55218;SDS011;65463;43.864;20.136;2023-02-01T07:39:10;95.50;;;27.98;;
55218;SDS011;65463;43.864;20.136;2023-02-01T07:41:36;86.15;;;19.27;;
55218;SDS011;65463;43.864;20.136;2023-02-01T07:44:02;75.10;;;19.58;;
55218;SDS011;65463;43.864;20.136;2023-02-01T07:46:29;85.00;;;20.00;;
55218;SDS011;65463;43.864;20.136;2023-02-01T07:48:55;93.60;;;19.42;;
55218;SDS011;65463;43.864;20.136;2023-02-01T07:51:21;77.38;;;19.92;;
55218;SDS011;65463;43.864;20.136;2023-02-01T07:53:47;77.55;;;17.85;;
55218;SDS011;65463;43.864;20.136;2023-02-01T07:56:18;82.38;;;19.33;;
55218;SDS011;65463;43.864;20.136;2023-02-01T07:58:49;88.25;;;19.55;;
55218;SDS011;65463;43.864;20.136;2023-02-01T08:01:17;92.15;;;18.70;;
55218;SDS011;65463;43.864;20.136;2023-02-01T08:03:56;62.15;;;18.95;;
55218;SDS011;65463;43.864;20.136;2023-02-01T08:06:24;61.78;;;19.67;;
55218;SDS011;65463;43.864;20.136;2023-02-01T08:08:51;114.53;;;22.70;;
55218;SDS011;65463;43.864;20.136;2023-02-01T08:11:18;85.32;;;20.40;;
55218;SDS011;65463;43.864;20.136;2023-02-01T08:13:45;60.80;;;19.58;;
55218;SDS011;65463;43.864;20.136;2023-02-01T08:16:11;73.47;;;22.98;;
55218;SDS011;65463;43.864;20.136;2023-02-01T08:18:38;65.80;;;21.40;;
55218;SDS011;65463;43.864;20.136;2023-02-01T08:21:11;79.18;;;24.17;;
55218;SDS011;65463;43.864;20.136;2023-02-01T08:23:38;75.03;;;23.52;;
55218;SDS011;65463;43.864;20.136;2023-02-01T08:26:09;89.15;;;23.02;;
55218;SDS011;65463;43.864;20.136;2023-02-01T08:28:36;85.50;;;23.88;;
55218;SDS011;65463;43.864;20.136;2023-02-01T08:31:10;66.57;;;22.30;;
55218;SDS011;65463;43.864;20.136;2023-02-01T08:33:39;59.03;;;23.45;;
55218;SDS011;65463;43.864;20.136;2023-02-01T08:36:07;52.50;;;24.50;;
55218;SDS011;65463;43.864;20.136;2023-02-01T08:38:34;46.08;;;26.70;;
55218;SDS011;65463;43.864;20.136;2023-02-01T08:41:08;40.75;;;20.77;;
55218;SDS011;65463;43.864;20.136;2023-02-01T08:43:35;33.22;;;17.48;;
55218;SDS011;65463;43.864;20.136;2023-02-01T08:46:02;32.60;;;18.30;;
55218;SDS011;65463;43.864;20.136;2023-02-01T08:48:28;31.02;;;14.88;;
55218;SDS011;65463;43.864;20.136;2023-02-01T08:50:54;26.95;;;12.85;;
55218;SDS011;65463;43.864;20.136;2023-02-01T08:53:20;21.58;;;10.98;;
55218;SDS011;65463;43.864;20.136;2023-02-01T08:55:46;205.43;;;19.85;;
55218;SDS011;65463;43.864;20.136;2023-02-01T08:58:13;28.35;;;10.18;;
55218;SDS011;65463;43.864;20.136;2023-02-01T09:00:39;24.45;;;9.57;;
55218;SDS011;65463;43.864;20.136;2023-02-01T09:03:07;22.77;;;9.25;;
55218;SDS011;65463;43.864;20.136;2023-02-01T09:05:35;35.92;;;9.52;;
55218;SDS011;65463;43.864;20.136;2023-02-01T09:08:01;30.98;;;8.88;;
55218;SDS011;65463;43.864;20.136;2023-02-01T09:10:28;32.45;;;10.02;;
55218;SDS011;65463;43.864;20.136;2023-02-01T09:12:54;22.83;;;8.95;;
55218;SDS011;65463;43.864;20.136;2023-02-01T09:15:20;24.73;;;10.27;;
55218;SDS011;65463;43.864;20.136;2023-02-01T09:17:46;26.40;;;10.27;;
55218;SDS011;65463;43.864;20.136;2023-02-01T09:20:12;23.65;;;10.57;;
55218;SDS011;65463;43.864;20.136;2023-02-01T09:22:38;24.95;;;10.98;;
55218;SDS011;65463;43.864;20.136;2023-02-01T09:25:05;17.15;;;8.55;;
55218;SDS011;65463;43.864;20.136;2023-02-01T09:30:21;19.02;;;7.45;;
55218;SDS011;65463;43.864;20.136;2023-02-01T09:32:47;18.70;;;8.15;;
55218;SDS011;65463;43.864;20.136;2023-02-01T09:35:14;21.35;;;6.80;;
55218;SDS011;65463;43.864;20.136;2023-02-01T09:37:40;17.33;;;7.22;;
55218;SDS011;65463;43.864;20.136;2023-02-01T09:40:06;22.65;;;8.10;;
55218;SDS011;65463;43.864;20.136;2023-02-01T09:48:02;17.17;;;6.78;;
55218;SDS011;65463;43.864;20.136;2023-02-01T09:50:33;19.10;;;7.20;;
55218;SDS011;65463;43.864;20.136;2023-02-01T09:53:48;22.60;;;7.93;;
55218;SDS011;65463;43.864;20.136;2023-02-01T09:56:12;16.67;;;6.32;;
55218;SDS011;65463;43.864;20.136;2023-02-01T09:58:52;23.33;;;6.60;;
55218;SDS011;65463;43.864;20.136;2023-02-01T10:01:21;22.10;;;6.72;;
55218;SDS011;65463;43.864;20.136;2023-02-01T10:03:49;18.83;;;6.80;;
55218;SDS011;65463;43.864;20.136;2023-02-01T10:06:28;13.73;;;6.10;;
55218;SDS011;65463;43.864;20.136;2023-02-01T10:24:20;17.35;;;6.80;;
55218;SDS011;65463;43.864;20.136;2023-02-01T10:26:54;13.13;;;6.10;;
55218;SDS011;65463;43.864;20.136;2023-02-01T10:29:22;13.55;;;6.15;;
55218;SDS011;65463;43.864;20.136;2023-02-01T10:31:50;12.73;;;5.53;;
55218;SDS011;65463;43.864;20.136;2023-02-01T10:34:27;12.63;;;5.68;;
55218;SDS011;65463;43.864;20.136;2023-02-01T10:39:36;14.52;;;6.25;;
55218;SDS011;65463;43.864;20.136;2023-02-01T10:42:02;12.93;;;5.10;;
55218;SDS011;65463;43.864;20.136;2023-02-01T10:44:29;16.92;;;6.20;;
55218;SDS011;65463;43.864;20.136;2023-02-01T10:46:56;17.60;;;5.97;;
55218;SDS011;65463;43.864;20.136;2023-02-01T10:49:38;9.20;;;4.55;;
55218;SDS011;65463;43.864;20.136;2023-02-01T10:52:35;8.30;;;4.28;;
55218;SDS011;65463;43.864;20.136;2023-02-01T10:57:54;12.35;;;5.40;;
55218;SDS011;65463;43.864;20.136;2023-02-01T11:00:21;9.95;;;5.03;;
55218;SDS011;65463;43.864;20.136;2023-02-01T11:02:47;23.45;;;7.45;;
55218;SDS011;65463;43.864;20.136;2023-02-01T11:05:15;14.27;;;4.97;;
55218;SDS011;65463;43.864;20.136;2023-02-01T11:07:47;24.88;;;10.10;;
55218;SDS011;65463;43.864;20.136;2023-02-01T11:12:59;10.75;;;4.38;;
55218;SDS011;65463;43.864;20.136;2023-02-01T11:15:27;10.32;;;4.45;;
55218;SDS011;65463;43.864;20.136;2023-02-01T11:17:54;10.38;;;4.70;;
55218;SDS011;65463;43.864;20.136;2023-02-01T11:20:39;20.52;;;6.28;;
55218;SDS011;65463;43.864;20.136;2023-02-01T11:23:13;16.60;;;5.95;;
55218;SDS011;65463;43.864;20.136;2023-02-01T11:25:55;20.50;;;7.72;;
55218;SDS011;65463;43.864;20.136;2023-02-01T11:28:24;16.83;;;5.78;;
55218;SDS011;65463;43.864;20.136;2023-02-01T11:31:05;10.23;;;5.07;;
55218;SDS011;65463;43.864;20.136;2023-02-01T11:33:43;13.40;;;5.07;;
55218;SDS011;65463;43.864;20.136;2023-02-01T11:36:13;8.77;;;4.32;;
55218;SDS011;65463;43.864;20.136;2023-02-01T11:42:20;10.02;;;4.85;;
55218;SDS011;65463;43.864;20.136;2023-02-01T11:44:41;14.75;;;7.10;;
55218;SDS011;65463;43.864;20.136;2023-02-01T11:50:01;17.00;;;8.57;;
55218;SDS011;65463;43.864;20.136;2023-02-01T11:55:17;10.43;;;5.20;;
55218;SDS011;65463;43.864;20.136;2023-02-01T12:06:12;9.70;;;4.68;;
55218;SDS011;65463;43.864;20.136;2023-02-01T12:09:11;11.05;;;5.10;;
55218;SDS011;65463;43.864;20.136;2023-02-01T12:11:59;7.90;;;3.58;;
55218;SDS011;65463;43.864;20.136;2023-02-01T12:17:41;19.70;;;10.50;;
55218;SDS011;65463;43.864;20.136;2023-02-01T12:23:21;7.80;;;3.90;;
55218;SDS011;65463;43.864;20.136;2023-02-01T12:29:07;5.85;;;2.35;;
55218;SDS011;65463;43.864;20.136;2023-02-01T12:34:09;5.35;;;2.75;;
55218;SDS011;65463;43.864;20.136;2023-02-01T12:39:31;6.35;;;3.03;;
55218;SDS011;65463;43.864;20.136;2023-02-01T12:45:02;13.10;;;5.60;;
55218;SDS011;65463;43.864;20.136;2023-02-01T12:49:53;6.22;;;2.35;;
55218;SDS011;65463;43.864;20.136;2023-02-01T12:52:30;4.30;;;2.30;;
55218;SDS011;65463;43.864;20.136;2023-02-01T12:57:51;7.97;;;1.80;;
55218;SDS011;65463;43.864;20.136;2023-02-01T13:00:39;5.07;;;2.10;;
55218;SDS011;65463;43.864;20.136;2023-02-01T13:03:15;3.97;;;1.70;;
55218;SDS011;65463;43.864;20.136;2023-02-01T13:11:29;4.88;;;2.65;;
55218;SDS011;65463;43.864;20.136;2023-02-01T13:16:37;4.30;;;1.98;;
55218;SDS011;65463;43.864;20.136;2023-02-01T13:21:39;3.47;;;1.75;;
55218;SDS011;65463;43.864;20.136;2023-02-01T13:24:07;3.78;;;1.50;;
55218;SDS011;65463;43.864;20.136;2023-02-01T13:26:52;3.80;;;1.73;;
55218;SDS011;65463;43.864;20.136;2023-02-01T13:29:19;2.90;;;1.33;;
55218;SDS011;65463;43.864;20.136;2023-02-01T13:32:03;3.55;;;1.40;;
55218;SDS011;65463;43.864;20.136;2023-02-01T13:43:12;5.88;;;3.17;;
55218;SDS011;65463;43.864;20.136;2023-02-01T13:45:46;14.18;;;7.35;;
55218;SDS011;65463;43.864;20.136;2023-02-01T13:48:23;9.98;;;4.95;;
55218;SDS011;65463;43.864;20.136;2023-02-01T13:50:55;5.55;;;3.00;;
55218;SDS011;65463;43.864;20.136;2023-02-01T13:54:07;11.10;;;4.88;;
55218;SDS011;65463;43.864;20.136;2023-02-01T13:56:12;8.70;;;3.72;;
55218;SDS011;65463;43.864;20.136;2023-02-01T13:58:42;4.30;;;2.05;;
55218;SDS011;65463;43.864;20.136;2023-02-01T14:03:54;14.93;;;6.18;;
55218;SDS011;65463;43.864;20.136;2023-02-01T14:19:20;6.18;;;1.95;;
55218;SDS011;65463;43.864;20.136;2023-02-01T14:21:48;7.95;;;2.60;;
55218;SDS011;65463;43.864;20.136;2023-02-01T14:26:58;5.55;;;2.10;;
55218;SDS011;65463;43.864;20.136;2023-02-01T14:32:11;4.38;;;1.92;;
55218;SDS011;65463;43.864;20.136;2023-02-01T14:44:44;4.22;;;2.08;;
55218;SDS011;65463;43.864;20.136;2023-02-01T14:49:47;6.60;;;2.28;;
55218;SDS011;65463;43.864;20.136;2023-02-01T14:52:16;5.25;;;2.35;;
55218;SDS011;65463;43.864;20.136;2023-02-01T14:54:43;3.83;;;1.73;;
55218;SDS011;65463;43.864;20.136;2023-02-01T14:57:15;6.38;;;2.30;;
55218;SDS011;65463;43.864;20.136;2023-02-01T14:59:44;5.07;;;2.42;;
55218;SDS011;65463;43.864;20.136;2023-02-01T15:02:17;6.50;;;2.08;;
55218;SDS011;65463;43.864;20.136;2023-02-01T15:04:44;8.73;;;3.75;;
55218;SDS011;65463;43.864;20.136;2023-02-01T15:07:11;6.70;;;2.90;;
55218;SDS011;65463;43.864;20.136;2023-02-01T15:09:42;6.40;;;2.22;;
55218;SDS011;65463;43.864;20.136;2023-02-01T15:14:43;8.55;;;2.80;;
55218;SDS011;65463;43.864;20.136;2023-02-01T15:17:20;14.60;;;4.25;;
55218;SDS011;65463;43.864;20.136;2023-02-01T15:19:53;13.73;;;3.28;;
55218;SDS011;65463;43.864;20.136;2023-02-01T15:22:19;5.88;;;3.08;;
55218;SDS011;65463;43.864;20.136;2023-02-01T15:24:51;15.40;;;4.28;;
55218;SDS011;65463;43.864;20.136;2023-02-01T15:27:18;28.73;;;11.05;;
55218;SDS011;65463;43.864;20.136;2023-02-01T15:29:44;20.52;;;7.57;;
55218;SDS011;65463;43.864;20.136;2023-02-01T15:34:58;15.18;;;4.90;;
55218;SDS011;65463;43.864;20.136;2023-02-01T15:37:28;22.45;;;7.90;;
55218;SDS011;65463;43.864;20.136;2023-02-01T15:40:17;19.60;;;10.45;;
55218;SDS011;65463;43.864;20.136;2023-02-01T15:42:49;24.33;;;11.63;;
55218;SDS011;65463;43.864;20.136;2023-02-01T15:45:23;22.50;;;11.02;;
55218;SDS011;65463;43.864;20.136;2023-02-01T15:47:54;18.17;;;10.00;;
55218;SDS011;65463;43.864;20.136;2023-02-01T15:50:22;21.38;;;8.13;;
55218;SDS011;65463;43.864;20.136;2023-02-01T15:52:49;13.02;;;6.75;;
55218;SDS011;65463;43.864;20.136;2023-02-01T15:55:17;17.10;;;6.75;;
55218;SDS011;65463;43.864;20.136;2023-02-01T15:57:44;18.30;;;7.38;;
55218;SDS011;65463;43.864;20.136;2023-02-01T16:08:00;25.52;;;12.30;;
55218;SDS011;65463;43.864;20.136;2023-02-01T16:10:37;28.67;;;12.73;;
55218;SDS011;65463;43.864;20.136;2023-02-01T16:13:04;29.70;;;13.48;;
55218;SDS011;65463;43.864;20.136;2023-02-01T16:15:30;29.02;;;13.10;;
55218;SDS011;65463;43.864;20.136;2023-02-01T16:17:56;59.67;;;24.42;;
55218;SDS011;65463;43.864;20.136;2023-02-01T16:20:22;30.38;;;13.13;;
55218;SDS011;65463;43.864;20.136;2023-02-01T16:22:48;34.15;;;15.50;;
55218;SDS011;65463;43.864;20.136;2023-02-01T16:25:15;32.45;;;14.80;;
55218;SDS011;65463;43.864;20.136;2023-02-01T16:27:41;36.20;;;16.27;;
55218;SDS011;65463;43.864;20.136;2023-02-01T16:30:07;40.45;;;16.00;;
55218;SDS011;65463;43.864;20.136;2023-02-01T16:32:35;26.52;;;11.55;;
55218;SDS011;65463;43.864;20.136;2023-02-01T16:35:15;27.53;;;12.80;;
55218;SDS011;65463;43.864;20.136;2023-02-01T16:40:14;30.35;;;13.32;;
55218;SDS011;65463;43.864;20.136;2023-02-01T16:42:44;35.33;;;17.65;;
55218;SDS011;65463;43.864;20.136;2023-02-01T16:45:11;32.40;;;13.50;;
55218;SDS011;65463;43.864;20.136;2023-02-01T16:47:37;33.88;;;15.18;;
55218;SDS011;65463;43.864;20.136;2023-02-01T16:50:05;31.08;;;13.90;;
55218;SDS011;65463;43.864;20.136;2023-02-01T16:52:41;34.25;;;14.95;;
55218;SDS011;65463;43.864;20.136;2023-02-01T16:55:17;34.72;;;15.15;;
55218;SDS011;65463;43.864;20.136;2023-02-01T16:57:44;31.55;;;14.30;;
55218;SDS011;65463;43.864;20.136;2023-02-01T17:00:11;34.53;;;13.27;;
55218;SDS011;65463;43.864;20.136;2023-02-01T17:02:38;30.92;;;12.98;;
55218;SDS011;65463;43.864;20.136;2023-02-01T17:05:07;34.13;;;14.15;;
55218;SDS011;65463;43.864;20.136;2023-02-01T17:07:34;59.92;;;29.58;;
55218;SDS011;65463;43.864;20.136;2023-02-01T17:10:02;41.97;;;19.10;;
55218;SDS011;65463;43.864;20.136;2023-02-01T17:12:31;41.90;;;16.40;;
55218;SDS011;65463;43.864;20.136;2023-02-01T17:14:58;32.78;;;15.95;;
55218;SDS011;65463;43.864;20.136;2023-02-01T17:17:36;34.03;;;15.25;;
55218;SDS011;65463;43.864;20.136;2023-02-01T17:20:02;33.58;;;14.25;;
55218;SDS011;65463;43.864;20.136;2023-02-01T17:22:29;28.60;;;14.68;;